Time;durP1;ratioP1;P1;durP2;ratioP2;P2;SDS_P1;SDS_P2;PMS_P1;PMS_P2;Temp;Humidity;BMP_temperature;BMP_pressure;BME280_temperature;BME280_humidity;BME280_pressure;Samples;Min_cycle;Max_cycle;Signal;HPM_P1;HPM_P2
2021/09/22 00:02:14;;;;;;;9.77;6.05;;;;;;;11.41;85.12;95635.97;5087338;28;20462;-69
2021/09/22 00:04:41;;;;;;;11.00;5.93;;;;;;;11.35;84.61;95613.38;5083303;28;20046;-69
2021/09/22 00:07:08;;;;;;;11.77;6.63;;;;;;;11.42;84.28;95630.56;5083844;28;20950;-69
2021/09/22 00:09:35;;;;;;;12.05;6.80;;;;;;;11.40;84.44;95623.97;5081622;28;20519;-69
2021/09/22 00:12:02;;;;;;;12.52;6.43;;;;;;;11.33;84.67;95625.84;5083606;28;20047;-70
2021/09/22 00:14:29;;;;;;;9.38;5.53;;;;;;;11.38;84.88;95623.38;5083704;28;20051;-69
2021/09/22 00:16:57;;;;;;;11.27;5.93;;;;;;;11.28;84.70;95629.88;5083438;28;20044;-69
2021/09/22 00:19:24;;;;;;;9.18;5.88;;;;;;;11.38;85.14;95639.00;5080618;28;20076;-69
2021/09/22 00:21:51;;;;;;;11.15;6.55;;;;;;;11.37;85.08;95637.44;5078426;28;20045;-69
2021/09/22 00:24:18;;;;;;;11.57;6.03;;;;;;;11.19;85.80;95620.75;5077062;28;20425;-69
2021/09/22 00:26:45;;;;;;;11.75;5.55;;;;;;;11.31;85.48;95628.66;5076925;28;20043;-69
2021/09/22 00:29:12;;;;;;;11.63;6.28;;;;;;;11.25;85.55;95614.69;5078923;28;20490;-69
2021/09/22 00:31:40;;;;;;;14.48;7.15;;;;;;;11.24;85.77;95612.28;5075385;28;20040;-69
2021/09/22 00:34:07;;;;;;;11.15;6.10;;;;;;;11.33;85.89;95605.78;5081073;28;20421;-70
2021/09/22 00:36:34;;;;;;;11.50;6.32;;;;;;;11.22;85.93;95609.09;5075649;28;20044;-70
2021/09/22 00:39:03;;;;;;;11.52;7.60;;;;;;;11.09;86.22;95584.75;5073426;28;20067;-70
2021/09/22 00:41:29;;;;;;;15.23;7.60;;;;;;;11.20;86.52;95611.09;5079325;28;20047;-70
2021/09/22 00:43:56;;;;;;;12.05;6.90;;;;;;;11.19;86.49;95599.88;5079257;28;20032;-69
2021/09/22 00:46:23;;;;;;;13.32;7.60;;;;;;;11.14;86.67;95607.56;5076711;28;20059;-69
2021/09/22 00:48:51;;;;;;;11.38;6.43;;;;;;;11.16;86.99;95600.31;5082518;28;20044;-69
2021/09/22 00:51:19;;;;;;;12.88;6.72;;;;;;;11.17;87.03;95607.13;5080909;28;20044;-70
2021/09/22 00:53:46;;;;;;;14.77;7.38;;;;;;;11.13;87.18;95605.97;5082965;28;20504;-70
2021/09/22 00:56:15;;;;;;;16.33;7.60;;;;;;;11.15;86.80;95598.72;5077227;28;20040;-69
2021/09/22 00:58:42;;;;;;;9.93;6.05;;;;;;;11.17;87.23;95596.69;5077562;28;20041;-70
2021/09/22 01:01:09;;;;;;;13.43;7.72;;;;;;;11.15;86.93;95593.50;5083039;28;20048;-70
2021/09/22 01:03:36;;;;;;;17.73;7.32;;;;;;;11.24;86.95;95592.22;5079220;28;20557;-69
2021/09/22 01:06:03;;;;;;;14.18;6.15;;;;;;;11.16;86.82;95584.66;5079288;28;20082;-69
2021/09/22 01:08:31;;;;;;;14.00;7.13;;;;;;;11.24;86.80;95592.22;5074518;28;20076;-69
2021/09/22 01:10:59;;;;;;;14.30;6.68;;;;;;;11.10;86.83;95572.50;5074783;28;20058;-70
2021/09/22 01:13:26;;;;;;;13.52;6.72;;;;;;;11.11;87.18;95581.94;5078891;28;20123;-70
2021/09/22 01:15:53;;;;;;;12.02;6.88;;;;;;;11.09;87.13;95569.09;5077293;28;20052;-70
2021/09/22 01:18:22;;;;;;;16.95;7.47;;;;;;;11.12;87.15;95575.69;5080208;28;20047;-69
2021/09/22 01:20:55;;;;;;;11.07;6.75;;;;;;;11.15;87.60;95572.66;5078426;28;20036;-70
2021/09/22 01:23:26;;;;;;;13.25;6.63;;;;;;;11.10;87.53;95569.91;5079876;28;20040;-69
2021/09/22 01:25:57;;;;;;;11.98;7.43;;;;;;;11.16;87.57;95563.81;5082401;28;20078;-70
2021/09/22 01:28:27;;;;;;;15.32;7.85;;;;;;;11.14;87.35;95559.84;5081346;28;20044;-70
2021/09/22 01:31:00;;;;;;;11.75;6.97;;;;;;;11.09;87.70;95561.28;5074727;28;20127;-69
2021/09/22 01:33:29;;;;;;;13.00;6.67;;;;;;;11.05;87.81;95572.34;5080836;28;20036;-70
2021/09/22 01:36:14;;;;;;;16.77;8.00;;;;;;;10.98;87.79;95561.19;5078448;28;20052;-69
2021/09/22 01:38:47;;;;;;;12.70;6.68;;;;;;;10.90;87.78;95544.81;5076937;28;20470;-70
2021/09/22 01:41:19;;;;;;;13.48;7.22;;;;;;;10.93;87.51;95555.81;5081308;28;20122;-69
2021/09/22 01:43:59;;;;;;;13.55;7.07;;;;;;;11.01;87.57;95560.75;5076538;28;20123;-69
2021/09/22 01:47:00;;;;;;;14.40;7.57;;;;;;;10.95;87.76;95544.19;5038682;28;20067;-70
2021/09/22 01:49:46;;;;;;;18.30;8.40;;;;;;;11.01;87.38;95555.56;5077691;28;20054;-69
2021/09/22 01:52:14;;;;;;;14.68;8.05;;;;;;;11.09;87.55;95547.44;5078684;28;20047;-70
2021/09/22 01:55:02;;;;;;;13.50;7.57;;;;;;;10.97;87.35;95542.16;5085133;28;20509;-69
2021/09/22 01:57:29;;;;;;;12.77;8.15;;;;;;;11.01;87.66;95550.34;5076014;28;20099;-69
2021/09/22 01:59:56;;;;;;;15.60;8.10;;;;;;;11.00;87.63;95543.50;5086404;28;20040;-69
2021/09/22 02:02:40;;;;;;;17.85;8.80;;;;;;;11.02;87.50;95544.09;5080785;28;20100;-70
2021/09/22 02:05:21;;;;;;;13.60;7.75;;;;;;;10.89;87.89;95543.22;5079899;28;20048;-69
2021/09/22 02:07:56;;;;;;;13.90;7.22;;;;;;;10.96;88.30;95542.38;5076789;28;20516;-69
2021/09/22 02:10:27;;;;;;;17.38;8.30;;;;;;;10.99;87.86;95541.94;5075907;28;20123;-69
2021/09/22 02:12:53;;;;;;;18.17;9.13;;;;;;;11.07;87.42;95544.25;5078299;28;20040;-69
2021/09/22 02:15:23;;;;;;;12.93;6.85;;;;;;;11.06;87.26;95540.06;5073793;28;20044;-69
2021/09/22 02:18:10;;;;;;;14.77;7.28;;;;;;;10.98;86.85;95537.72;5080386;28;20040;-69
2021/09/22 02:20:38;;;;;;;15.70;7.75;;;;;;;11.09;86.69;95539.63;5075280;28;20126;-69
2021/09/22 02:23:20;;;;;;;16.50;7.80;;;;;;;10.98;86.61;95529.91;5079690;28;20036;-70
2021/09/22 02:25:49;;;;;;;13.10;6.85;;;;;;;10.99;86.83;95531.50;5075089;28;20505;-70
2021/09/22 02:28:16;;;;;;;15.52;8.13;;;;;;;11.10;86.37;95544.63;5076382;28;20589;-70
2021/09/22 02:30:45;;;;;;;14.00;7.70;;;;;;;11.05;85.92;95549.66;5077456;28;20131;-70
2021/09/22 02:33:13;;;;;;;12.70;6.75;;;;;;;11.01;85.82;95545.13;5076128;28;20044;-70
2021/09/22 02:35:41;;;;;;;11.52;7.18;;;;;;;11.03;84.89;95548.31;5081423;28;20044;-70
2021/09/22 02:38:22;;;;;;;13.20;6.55;;;;;;;11.00;84.76;95546.13;5077733;28;20133;-69
2021/09/22 02:40:49;;;;;;;10.10;6.13;;;;;;;10.81;84.05;95533.06;5078737;28;20056;-70
2021/09/22 02:43:23;;;;;;;10.93;5.88;;;;;;;10.81;82.57;95535.69;5078784;28;20123;-69
2021/09/22 02:45:51;;;;;;;12.35;6.90;;;;;;;10.89;82.07;95553.66;5074510;28;20535;-69
2021/09/22 02:48:22;;;;;;;13.85;7.40;;;;;;;10.81;81.20;95543.50;5076947;28;20135;-70
2021/09/22 02:50:51;;;;;;;11.55;5.88;;;;;;;10.79;80.87;95547.34;5069609;28;20044;-70
2021/09/22 02:53:18;;;;;;;11.55;6.47;;;;;;;10.77;81.37;95544.94;5076271;28;20044;-69
2021/09/22 02:55:45;;;;;;;9.13;5.68;;;;;;;10.85;81.61;95542.03;5080497;28;20067;-69
2021/09/22 02:58:13;;;;;;;11.23;6.53;;;;;;;10.85;81.62;95534.22;5081750;28;20048;-68
2021/09/22 03:00:47;;;;;;;9.30;4.95;;;;;;;10.83;80.93;95541.47;5084234;28;20044;-68
2021/09/22 03:03:15;;;;;;;9.90;5.13;;;;;;;10.77;81.54;95534.53;5075105;28;20048;-69
2021/09/22 03:05:43;;;;;;;11.60;6.38;;;;;;;10.69;81.48;95534.78;5078727;28;20040;-69
2021/09/22 03:08:10;;;;;;;12.75;6.20;;;;;;;10.80;81.53;95549.72;5082661;28;20044;-68
2021/09/22 03:10:37;;;;;;;10.90;5.50;;;;;;;10.73;81.52;95543.75;5077226;28;20466;-69
2021/09/22 03:13:03;;;;;;;10.75;5.85;;;;;;;10.71;81.53;95527.53;5079119;28;20422;-69
2021/09/22 03:15:31;;;;;;;9.35;5.32;;;;;;;10.62;81.63;95510.59;5076413;28;20044;-68
2021/09/22 03:17:58;;;;;;;9.20;5.30;;;;;;;10.65;80.96;95541.44;5079007;28;20110;-69
2021/09/22 03:20:25;;;;;;;9.38;5.07;;;;;;;10.63;81.09;95533.03;5079218;28;20052;-68
2021/09/22 03:22:52;;;;;;;8.98;5.45;;;;;;;10.62;81.09;95526.22;5079549;28;20481;-68
2021/09/22 03:25:25;;;;;;;15.35;5.47;;;;;;;10.60;80.61;95528.25;5076527;28;20101;-68
2021/09/22 03:27:52;;;;;;;13.05;5.90;;;;;;;10.54;81.58;95523.91;5074524;28;20045;-68
2021/09/22 03:30:20;;;;;;;12.00;6.60;;;;;;;10.58;80.00;95530.28;5073735;28;20123;-69
2021/09/22 03:32:55;;;;;;;11.32;5.82;;;;;;;10.56;79.58;95521.88;5073536;28;20044;-69
2021/09/22 03:35:21;;;;;;;11.23;5.97;;;;;;;10.47;79.87;95522.13;5074524;28;20044;-69
2021/09/22 03:37:49;;;;;;;10.43;5.40;;;;;;;10.59;80.42;95526.66;5074853;28;20040;-69
2021/09/22 03:40:16;;;;;;;8.77;5.15;;;;;;;10.56;80.42;95537.50;5076024;28;20094;-69
2021/09/22 03:42:43;;;;;;;11.73;6.13;;;;;;;10.61;80.34;95530.66;5075620;28;20273;-69
2021/09/22 03:45:15;;;;;;;12.02;6.32;;;;;;;10.61;80.79;95519.44;5078822;28;20043;-69
2021/09/22 03:47:42;;;;;;;8.82;4.97;;;;;;;10.50;81.28;95524.31;5075845;28;20131;-69
2021/09/22 03:50:10;;;;;;;11.68;5.95;;;;;;;10.52;82.06;95542.34;5072631;28;20052;-69
2021/09/22 03:52:57;;;;;;;13.70;5.95;;;;;;;10.41;82.85;95530.81;5077548;28;20127;-69
2021/09/22 03:55:25;;;;;;;11.05;6.03;;;;;;;10.43;82.86;95523.59;5075781;28;20430;-69
2021/09/22 03:57:52;;;;;;;13.68;5.88;;;;;;;10.36;83.94;95538.47;5069754;28;20123;-69
2021/09/22 04:00:20;;;;;;;12.40;6.47;;;;;;;10.30;83.75;95523.66;5076993;28;20078;-69
2021/09/22 04:02:47;;;;;;;10.63;6.30;;;;;;;10.25;83.78;95513.09;5069797;28;20493;-69
2021/09/22 04:05:16;;;;;;;12.52;5.80;;;;;;;10.26;84.07;95523.28;5077083;28;20106;-69
2021/09/22 04:07:44;;;;;;;10.57;5.75;;;;;;;10.30;83.92;95518.47;5079488;28;20052;-69
2021/09/22 04:10:11;;;;;;;9.90;5.25;;;;;;;10.20;84.43;95505.09;5076689;28;20048;-69
2021/09/22 04:12:38;;;;;;;11.30;6.30;;;;;;;10.27;84.74;95519.66;5077266;28;20186;-69
2021/09/22 04:15:06;;;;;;;12.07;6.75;;;;;;;10.27;85.05;95521.47;5080190;28;20040;-69
2021/09/22 04:17:34;;;;;;;11.45;6.30;;;;;;;10.33;84.99;95518.03;5078513;28;20063;-69
2021/09/22 04:20:01;;;;;;;10.93;6.15;;;;;;;10.36;84.29;95517.63;5081642;28;20051;-69
2021/09/22 04:22:29;;;;;;;9.98;5.68;;;;;;;10.39;83.96;95505.97;5078091;28;20045;-69
2021/09/22 04:24:56;;;;;;;11.35;6.75;;;;;;;10.37;83.55;95500.19;5079919;28;20086;-69
2021/09/22 04:27:23;;;;;;;10.88;7.18;;;;;;;10.43;83.73;95502.75;5082757;28;20486;-69
2021/09/22 04:30:05;;;;;;;13.48;6.10;;;;;;;10.40;83.44;95503.16;5081403;28;20510;-70
2021/09/22 04:33:02;;;;;;;9.18;5.22;;;;;;;10.37;83.50;95497.59;5068782;28;20094;-69
2021/09/22 04:35:47;;;;;;;12.40;6.22;;;;;;;10.36;83.37;95491.59;5082915;28;20129;-69
2021/09/22 04:38:34;;;;;;;10.73;6.43;;;;;;;10.38;83.66;95494.78;5079383;28;20051;-69
2021/09/22 04:41:20;;;;;;;10.25;5.82;;;;;;;10.30;83.69;95482.00;5081626;28;20116;-69
2021/09/22 04:44:05;;;;;;;10.95;5.93;;;;;;;10.39;83.17;95472.94;5085675;28;20047;-69
2021/09/22 04:46:51;;;;;;;11.70;6.40;;;;;;;10.48;83.50;95483.88;5077748;28;20417;-68
2021/09/22 04:49:36;;;;;;;13.43;5.05;;;;;;;10.38;84.04;95463.53;5074020;28;20048;-69
2021/09/22 04:52:22;;;;;;;10.57;6.35;;;;;;;10.50;83.80;95467.03;5083759;28;20083;-70
2021/09/22 04:55:07;;;;;;;13.10;5.82;;;;;;;10.40;83.65;95466.72;5080685;28;20055;-69
2021/09/22 04:58:00;;;;;;;11.27;5.38;;;;;;;10.40;84.14;95471.91;5076220;28;20098;-69
2021/09/22 05:00:45;;;;;;;10.35;5.82;;;;;;;10.37;83.95;95481.97;5081208;28;20105;-69
2021/09/22 05:03:31;;;;;;;8.50;5.60;;;;;;;10.32;83.92;95464.41;5080868;28;20091;-69
2021/09/22 05:06:17;;;;;;;11.05;6.25;;;;;;;10.42;83.77;95464.69;5083780;28;20185;-69
2021/09/22 05:09:02;;;;;;;10.82;6.10;;;;;;;10.39;83.35;95488.56;5082784;28;20055;-69
2021/09/22 05:11:47;;;;;;;13.32;6.45;;;;;;;10.38;83.62;95484.34;5082049;28;20137;-69
2021/09/22 05:14:37;;;;;;;10.20;6.13;;;;;;;10.40;82.80;95469.31;5047268;28;20047;-68
2021/09/22 05:17:22;;;;;;;10.85;5.78;;;;;;;10.48;82.62;95484.69;5080131;28;20420;-69
2021/09/22 05:20:08;;;;;;;14.55;6.65;;;;;;;10.35;82.80;95484.78;5080723;28;20536;-69
2021/09/22 05:22:53;;;;;;;10.85;6.03;;;;;;;10.50;82.96;95493.06;5081450;28;20549;-69
2021/09/22 05:25:39;;;;;;;12.52;6.65;;;;;;;10.59;83.82;95477.16;5073526;28;20051;-69
2021/09/22 05:28:24;;;;;;;9.05;5.15;;;;;;;10.57;82.72;95484.38;5081709;28;20063;-69
2021/09/22 05:31:10;;;;;;;9.50;5.50;;;;;;;10.52;82.30;95480.63;5081548;28;20062;-69
2021/09/22 05:34:09;;;;;;;9.35;5.70;;;;;;;10.51;82.20;95479.06;5061711;28;20062;-69
2021/09/22 05:36:54;;;;;;;9.90;5.20;;;;;;;10.56;82.79;95469.78;5079609;28;20540;-69
2021/09/22 05:39:40;;;;;;;9.65;5.70;;;;;;;10.65;82.41;95478.91;5078798;28;20121;-68
2021/09/22 05:42:28;;;;;;;10.07;5.47;;;;;;;10.83;81.90;95491.97;5077898;28;20141;-69
2021/09/22 05:45:14;;;;;;;12.75;5.13;;;;;;;10.72;81.74;95490.06;5073480;28;20048;-68
2021/09/22 05:48:00;;;;;;;10.32;5.68;;;;;;;10.76;81.63;95482.63;5079813;28;20054;-69
2021/09/22 05:50:45;;;;;;;9.85;5.13;;;;;;;10.86;79.83;95491.53;5078368;28;20098;-69
2021/09/22 05:53:31;;;;;;;8.98;5.03;;;;;;;10.99;79.79;95485.38;5080502;28;20071;-69
2021/09/22 05:56:16;;;;;;;9.57;5.38;;;;;;;11.03;78.75;95480.53;5082945;28;20098;-69
2021/09/22 05:59:02;;;;;;;11.63;6.38;;;;;;;11.02;78.12;95473.72;5076861;28;20117;-69
2021/09/22 06:01:47;;;;;;;9.50;5.22;;;;;;;11.07;78.76;95476.47;5077136;28;20047;-69
2021/09/22 06:04:33;;;;;;;12.77;5.63;;;;;;;11.07;77.76;95466.03;5077553;28;20051;-69
2021/09/22 06:07:26;;;;;;;8.77;5.22;;;;;;;11.09;76.76;95470.03;5079248;28;20058;-69
2021/09/22 06:10:22;;;;;;;13.02;4.78;;;;;;;11.09;73.98;95458.78;5066910;28;20053;-69
2021/09/22 06:13:18;;;;;;;8.55;5.25;;;;;;;11.12;73.10;95468.81;5076643;28;20528;-69
2021/09/22 06:15:47;;;;;;;10.50;5.95;;;;;;;11.16;72.43;95462.13;5077306;28;20044;-69
2021/09/22 06:18:14;;;;;;;8.00;4.10;;;;;;;11.31;71.43;95463.56;5077788;28;20410;-68
2021/09/22 06:20:41;;;;;;;9.25;5.03;;;;;;;11.35;71.01;95460.31;5077696;28;20652;-69
2021/09/22 06:23:08;;;;;;;8.48;4.95;;;;;;;11.48;70.95;95467.16;5077369;28;20048;-69
2021/09/22 06:25:36;;;;;;;13.15;5.45;;;;;;;11.39;69.83;95447.63;5077916;28;20421;-71
2021/09/22 06:28:03;;;;;;;8.57;4.40;;;;;;;11.42;69.55;95444.59;5083159;28;20036;-69
2021/09/22 06:30:30;;;;;;;9.18;5.75;;;;;;;11.37;70.20;95460.09;5080739;28;20123;-69
2021/09/22 06:32:59;;;;;;;8.45;4.22;;;;;;;11.35;69.05;95456.91;5078828;28;20123;-68
2021/09/22 06:35:35;;;;;;;7.45;4.63;;;;;;;11.43;69.91;95456.59;5075213;28;20057;-69
2021/09/22 06:38:07;;;;;;;7.28;4.28;;;;;;;11.42;69.37;95462.84;5077865;28;20074;-68
2021/09/22 06:40:39;;;;;;;6.50;3.90;;;;;;;11.34;67.34;95465.75;5072294;28;20476;-69
2021/09/22 06:43:06;;;;;;;8.15;3.95;;;;;;;11.18;67.05;95447.09;5073548;28;20044;-68
2021/09/22 06:45:33;;;;;;;11.07;4.03;;;;;;;11.32;67.55;95475.59;5070250;28;20036;-68
2021/09/22 06:48:00;;;;;;;8.40;3.85;;;;;;;11.16;67.57;95464.72;5076365;28;20055;-68
2021/09/22 06:50:29;;;;;;;7.53;4.40;;;;;;;11.10;68.73;95461.19;5071560;28;20037;-68
2021/09/22 06:52:56;;;;;;;7.68;4.47;;;;;;;11.21;67.14;95464.88;5071959;28;20052;-68
2021/09/22 06:55:23;;;;;;;8.93;4.20;;;;;;;10.99;65.72;95451.50;5075239;28;20040;-68
2021/09/22 06:57:50;;;;;;;6.28;3.70;;;;;;;11.03;66.92;95459.69;5065167;28;20485;-68
2021/09/22 07:00:17;;;;;;;7.32;4.60;;;;;;;11.12;67.37;95463.59;5072747;28;20033;-68
2021/09/22 07:02:44;;;;;;;8.63;4.90;;;;;;;11.09;67.46;95454.41;5074020;28;20048;-68
2021/09/22 07:05:13;;;;;;;6.60;3.60;;;;;;;11.14;66.50;95451.13;5072701;28;20063;-68
2021/09/22 07:07:45;;;;;;;6.30;3.90;;;;;;;11.32;65.99;95459.94;5073120;28;20498;-68
2021/09/22 07:10:15;;;;;;;8.50;3.97;;;;;;;11.25;65.49;95454.81;5074847;28;20442;-68
2021/09/22 07:12:42;;;;;;;8.75;4.30;;;;;;;11.33;64.99;95464.16;5075104;28;20057;-67
2021/09/22 07:15:11;;;;;;;11.48;5.00;;;;;;;11.38;65.29;95461.66;5074392;28;20032;-68
2021/09/22 07:17:37;;;;;;;8.60;4.30;;;;;;;11.25;64.51;95463.44;5074092;28;20044;-68
2021/09/22 07:20:05;;;;;;;7.88;4.03;;;;;;;11.26;65.27;95475.44;5075404;28;20052;-69
2021/09/22 07:22:32;;;;;;;7.60;3.97;;;;;;;11.33;65.48;95458.94;5074041;28;20421;-69
2021/09/22 07:24:59;;;;;;;10.57;5.30;;;;;;;11.47;64.92;95463.78;5077827;28;20497;-69
2021/09/22 07:27:26;;;;;;;8.65;4.28;;;;;;;11.56;64.94;95464.25;5077769;28;20553;-68
2021/09/22 07:29:54;;;;;;;8.50;4.65;;;;;;;11.50;64.58;95454.69;5077728;28;20049;-68
2021/09/22 07:32:22;;;;;;;8.25;4.40;;;;;;;11.64;63.88;95463.94;5079249;28;20088;-68
2021/09/22 07:34:49;;;;;;;9.35;4.93;;;;;;;11.63;63.61;95454.53;5078395;28;20052;-68
2021/09/22 07:37:18;;;;;;;6.70;4.78;;;;;;;11.70;63.11;95461.47;5072574;28;20379;-69
2021/09/22 07:39:46;;;;;;;6.90;4.30;;;;;;;11.62;62.47;95462.56;5075669;28;20463;-68
2021/09/22 07:42:14;;;;;;;8.63;4.78;;;;;;;11.67;63.12;95460.88;5070543;28;20051;-69
2021/09/22 07:44:43;;;;;;;8.82;4.45;;;;;;;11.70;62.90;95458.84;5075772;28;20033;-69
2021/09/22 07:47:10;;;;;;;7.25;4.28;;;;;;;11.52;62.94;95450.03;5072078;28;20468;-68
2021/09/22 07:49:37;;;;;;;8.48;4.35;;;;;;;11.55;63.01;95465.25;5073980;28;20410;-68
2021/09/22 07:52:03;;;;;;;10.43;5.30;;;;;;;11.39;64.19;95468.50;5076440;28;20211;-69
2021/09/22 07:54:31;;;;;;;6.78;4.13;;;;;;;11.31;64.53;95455.75;5084708;28;20059;-69
2021/09/22 07:56:58;;;;;;;6.70;4.53;;;;;;;11.24;64.47;95456.63;5073508;28;20501;-69
2021/09/22 07:59:25;;;;;;;9.57;4.50;;;;;;;11.04;64.84;95461.28;5073958;28;20468;-69
2021/09/22 08:01:56;;;;;;;9.65;5.95;;;;;;;11.08;65.36;95467.66;5080412;28;20458;-69
2021/09/22 08:04:23;;;;;;;10.70;5.10;;;;;;;11.01;65.37;95482.56;5075610;28;20418;-69
2021/09/22 08:06:50;;;;;;;9.63;6.43;;;;;;;11.08;66.18;95467.66;5076607;28;20050;-68
2021/09/22 08:09:17;;;;;;;9.63;5.45;;;;;;;11.09;66.70;95471.84;5081808;28;20051;-70
2021/09/22 08:11:44;;;;;;;9.02;5.38;;;;;;;11.05;67.19;95478.50;5078115;28;20052;-70
2021/09/22 08:14:32;;;;;;;8.65;5.28;;;;;;;11.09;66.09;95453.59;5080613;28;20045;-69
2021/09/22 08:16:59;;;;;;;10.80;5.68;;;;;;;11.13;66.20;95465.19;5077319;28;20047;-69
2021/09/22 08:19:26;;;;;;;7.57;4.80;;;;;;;11.14;65.88;95460.75;5074392;28;20082;-69
2021/09/22 08:21:53;;;;;;;9.95;5.05;;;;;;;11.25;65.18;95446.97;5072911;28;20048;-69
2021/09/22 08:24:20;;;;;;;13.65;4.75;;;;;;;11.20;65.62;95444.22;5077081;28;20498;-69
2021/09/22 08:26:52;;;;;;;10.80;4.88;;;;;;;11.24;66.40;95440.97;5081826;28;20047;-70
2021/09/22 08:29:20;;;;;;;13.20;5.95;;;;;;;11.34;66.05;95434.44;5073230;28;20066;-69
2021/09/22 08:31:48;;;;;;;7.07;4.45;;;;;;;11.42;65.35;95431.53;5080449;28;20032;-70
2021/09/22 08:34:16;;;;;;;8.15;5.10;;;;;;;11.25;65.33;95416.50;5079448;28;20128;-70
2021/09/22 08:37:01;;;;;;;6.78;4.50;;;;;;;11.48;64.94;95435.84;5078937;28;20098;-70
2021/09/22 08:39:32;;;;;;;8.93;4.78;;;;;;;11.38;64.38;95422.53;5076255;28;20049;-70
2021/09/22 08:42:00;;;;;;;10.73;5.78;;;;;;;11.45;65.06;95431.06;5076004;28;20044;-70
2021/09/22 08:44:28;;;;;;;9.82;4.72;;;;;;;11.52;64.60;95437.00;5079040;28;20036;-70
2021/09/22 08:46:56;;;;;;;7.13;4.22;;;;;;;11.43;63.50;95427.91;5079893;28;20052;-70
2021/09/22 08:49:23;;;;;;;10.10;4.75;;;;;;;11.55;63.50;95441.78;5079103;28;20052;-70
2021/09/22 08:51:51;;;;;;;6.65;4.03;;;;;;;11.55;63.10;95433.97;5076964;28;20137;-70
2021/09/22 08:54:17;;;;;;;8.25;4.53;;;;;;;11.66;62.29;95427.97;5079646;28;20097;-70
2021/09/22 08:56:45;;;;;;;9.02;5.05;;;;;;;11.69;63.23;95420.75;5077292;28;20040;-70
2021/09/22 08:59:16;;;;;;;9.05;5.95;;;;;;;11.81;62.38;95429.38;5077484;28;20486;-70
2021/09/22 09:02:08;;;;;;;8.43;4.75;;;;;;;11.80;61.72;95428.59;5076301;28;20608;-69
2021/09/22 09:04:37;;;;;;;6.97;4.32;;;;;;;11.77;62.48;95412.59;5070962;28;20063;-69
2021/09/22 09:07:06;;;;;;;7.70;4.05;;;;;;;11.84;61.96;95439.38;5076859;28;20044;-69
2021/09/22 09:09:38;;;;;;;8.43;4.95;;;;;;;11.89;62.47;95416.00;5077573;28;20124;-69
2021/09/22 09:12:14;;;;;;;7.97;5.55;;;;;;;11.99;62.64;95426.75;5079466;28;20044;-69
2021/09/22 09:14:52;;;;;;;6.80;4.30;;;;;;;11.99;62.07;95421.53;5074173;28;20040;-69
2021/09/22 09:17:45;;;;;;;8.02;4.25;;;;;;;11.95;61.15;95420.34;5074862;28;20055;-70
2021/09/22 09:20:16;;;;;;;7.07;4.72;;;;;;;11.92;62.27;95415.59;5073605;28;20440;-70
2021/09/22 09:22:58;;;;;;;8.85;4.72;;;;;;;12.08;63.38;95410.72;5075203;28;20055;-70
2021/09/22 09:25:27;;;;;;;8.38;5.10;;;;;;;12.20;62.98;95411.53;5076866;28;20521;-70
2021/09/22 09:27:54;;;;;;;8.55;4.80;;;;;;;12.16;60.91;95394.75;5075680;28;20547;-70
2021/09/22 09:30:25;;;;;;;7.97;4.65;;;;;;;12.22;60.22;95409.50;5079888;28;20536;-70
2021/09/22 09:32:52;;;;;;;7.85;4.43;;;;;;;12.30;60.24;95395.28;5077560;28;20036;-70
2021/09/22 09:35:25;;;;;;;9.40;5.35;;;;;;;12.23;60.08;95400.66;5076167;28;20055;-70
2021/09/22 09:37:54;;;;;;;9.68;4.40;;;;;;;12.41;59.31;95397.91;5073259;28;20048;-70
2021/09/22 09:40:31;;;;;;;7.82;4.80;;;;;;;12.30;60.02;95396.09;5075848;28;20047;-70
2021/09/22 09:43:01;;;;;;;7.28;4.43;;;;;;;12.39;60.43;95394.75;5077243;28;20048;-70
2021/09/22 09:45:39;;;;;;;8.60;5.07;;;;;;;12.48;58.89;95397.81;5078473;28;20047;-70
2021/09/22 09:48:08;;;;;;;6.45;4.28;;;;;;;12.34;58.91;95401.66;5076104;28;20498;-70
2021/09/22 09:50:42;;;;;;;12.70;5.40;;;;;;;12.48;59.70;95395.19;5074575;28;20040;-70
2021/09/22 09:53:21;;;;;;;;;;;;;;;12.53;59.43;95384.03;5073630;28;20033;-70
2021/09/22 09:55:47;;;;;;;8.95;4.32;;;;;;;12.53;60.13;95378.81;5080877;28;20357;-70
2021/09/22 09:58:14;;;;;;;7.85;4.57;;;;;;;12.64;59.40;95375.41;5076869;28;20041;-70
2021/09/22 10:00:41;;;;;;;9.35;6.10;;;;;;;12.70;59.11;95389.38;5077261;28;20722;-70
2021/09/22 10:03:16;;;;;;;8.07;4.20;;;;;;;12.77;60.03;95385.59;5078464;28;20043;-70
2021/09/22 10:05:45;;;;;;;7.03;4.55;;;;;;;12.96;58.85;95372.34;5075484;28;20033;-70
2021/09/22 10:08:14;;;;;;;7.75;4.68;;;;;;;12.87;57.13;95369.31;5082390;28;20047;-70
2021/09/22 10:10:46;;;;;;;6.15;4.00;;;;;;;12.99;56.77;95371.91;5077264;28;20040;-71
2021/09/22 10:13:15;;;;;;;5.38;3.78;;;;;;;13.00;57.48;95378.72;5075811;28;20039;-70
2021/09/22 10:15:44;;;;;;;8.60;3.97;;;;;;;12.99;56.64;95369.28;5077459;28;20127;-70
2021/09/22 10:18:12;;;;;;;8.82;4.88;;;;;;;12.97;56.40;95373.97;5077042;28;20040;-70
2021/09/22 10:20:41;;;;;;;8.18;5.30;;;;;;;13.04;56.04;95374.63;5070564;28;20041;-70
2021/09/22 10:23:22;;;;;;;5.75;4.10;;;;;;;12.99;55.23;95377.13;5078170;28;20044;-70
2021/09/22 10:25:49;;;;;;;7.47;5.15;;;;;;;13.05;55.95;95383.25;5072075;28;20036;-69
2021/09/22 10:28:17;;;;;;;10.68;4.95;;;;;;;13.29;56.33;95376.09;5073086;28;20482;-69
2021/09/22 10:30:46;;;;;;;7.10;4.63;;;;;;;13.33;56.10;95372.81;5069119;28;20128;-69
2021/09/22 10:33:43;;;;;;;7.55;4.07;;;;;;;13.48;54.04;95371.50;5073190;28;20064;-69
2021/09/22 10:36:10;;;;;;;7.57;4.15;;;;;;;13.45;54.04;95359.69;5074059;28;20116;-69
2021/09/22 10:38:40;;;;;;;8.38;4.07;;;;;;;13.61;54.60;95362.56;5075106;28;20050;-69
2021/09/22 10:41:09;;;;;;;11.52;4.57;;;;;;;13.80;53.92;95350.84;5072661;28;20048;-70
2021/09/22 10:43:41;;;;;;;5.75;3.65;;;;;;;13.79;52.58;95364.94;5072090;28;20367;-69
2021/09/22 10:46:17;;;;;;;7.28;4.38;;;;;;;13.86;51.85;95355.09;5075294;28;20044;-69
2021/09/22 10:48:49;;;;;;;6.72;4.07;;;;;;;13.85;51.75;95347.53;5064228;28;20480;-69
2021/09/22 10:51:36;;;;;;;6.88;4.15;;;;;;;14.01;51.94;95338.03;5075373;28;20049;-69
2021/09/22 10:54:12;;;;;;;5.45;3.53;;;;;;;13.79;50.92;95332.75;5076145;28;20040;-69
2021/09/22 10:56:49;;;;;;;4.30;3.05;;;;;;;13.68;51.15;95342.25;5075167;28;20047;-69
2021/09/22 10:59:29;;;;;;;5.80;3.13;;;;;;;13.58;52.47;95327.97;5073124;28;20126;-68
2021/09/22 11:01:56;;;;;;;5.00;2.90;;;;;;;13.70;52.99;95324.50;5079227;28;20444;-68
2021/09/22 11:04:24;;;;;;;5.55;3.63;;;;;;;13.80;53.13;95335.13;5075010;28;20037;-69
2021/09/22 11:06:54;;;;;;;7.53;3.90;;;;;;;13.84;52.99;95341.47;5072114;28;20037;-69
2021/09/22 11:09:24;;;;;;;4.95;3.38;;;;;;;13.83;53.54;95337.28;5078551;28;20127;-68
2021/09/22 11:11:59;;;;;;;6.45;4.03;;;;;;;13.63;53.97;95350.03;5078726;28;20051;-69
2021/09/22 11:14:41;;;;;;;7.53;3.55;;;;;;;13.49;53.47;95355.56;5068982;28;20048;-68
2021/09/22 11:17:18;;;;;;;5.63;3.38;;;;;;;13.33;53.70;95357.13;5071414;28;20426;-68
2021/09/22 11:19:51;;;;;;;5.35;3.13;;;;;;;13.03;54.54;95336.41;5070379;28;20094;-68
2021/09/22 11:22:30;;;;;;;4.95;3.60;;;;;;;13.16;54.34;95349.22;5071145;28;20048;-69
2021/09/22 11:25:01;;;;;;;6.30;3.55;;;;;;;13.05;54.33;95349.25;5079851;28;20072;-68
2021/09/22 11:27:29;;;;;;;9.63;3.47;;;;;;;13.00;54.84;95342.13;5081455;28;20040;-68
2021/09/22 11:30:02;;;;;;;8.20;4.35;;;;;;;12.85;54.70;95349.66;5077410;28;20738;-68
2021/09/22 11:32:29;;;;;;;10.15;3.88;;;;;;;12.75;54.98;95340.59;5080299;28;20032;-68
2021/09/22 11:35:01;;;;;;;6.38;3.75;;;;;;;12.65;55.66;95329.94;5075252;28;20055;-68
2021/09/22 11:37:41;;;;;;;9.65;5.10;;;;;;;12.63;55.46;95332.00;5080480;28;20040;-68
2021/09/22 11:40:16;;;;;;;7.70;4.55;;;;;;;12.67;56.85;95327.09;5079269;28;20052;-69
2021/09/22 11:43:02;;;;;;;7.30;4.45;;;;;;;12.85;56.33;95328.75;5081120;28;20036;-69
2021/09/22 11:46:00;;;;;;;10.80;5.30;;;;;;;12.80;55.16;95332.06;5081834;28;20036;-69
2021/09/22 11:48:33;;;;;;;7.68;4.32;;;;;;;12.67;56.85;95317.44;5085529;28;20047;-69
2021/09/22 11:51:04;;;;;;;17.95;8.45;;;;;;;12.73;56.37;95326.16;5077460;28;20050;-69
2021/09/22 11:53:33;;;;;;;11.07;5.93;;;;;;;12.75;55.59;95324.94;5079850;28;20852;-69
2021/09/22 11:56:00;;;;;;;12.07;5.85;;;;;;;12.86;56.24;95319.91;5078893;28;20063;-69